Terminal Aerodrome Forecast
Issued by NWS

Home | Current Version | Previous Version | Graphics & Text | Print | Product List | Glossary On
Versions: 1 2 3 4 5 6 7 8 9 10 11 12 13 14 15 16 17 18 19 20 21
000
FTUS43 KABR 181914 AAA
TAFPIR
TAF AMD
KPIR 181914Z 1819/1918 35016KT P6SM VCSH OVC015
     FM190100 01015G22KT P6SM VCSH OVC025
     FM190300 36013G20KT 1SM -SN BLSN OVC010
     FM191300 01012KT 1SM -SN BLSN OVC030
     FM191700 02013KT 2SM -SN BLSN OVC025=

USA.gov is the U.S. government's official web portal to all federal, state and local government web resources and services.